createdAt,value
2019-02-17T00:00:39.081Z,101880.30
2019-02-17T00:03:08.889Z,101878.67
2019-02-17T00:05:38.589Z,101880.55
2019-02-17T00:08:08.246Z,101885.33
2019-02-17T00:10:37.887Z,101873.66
2019-02-17T00:13:07.840Z,101870.92
2019-02-17T00:15:37.506Z,101868.95
2019-02-17T00:18:09.137Z,101880.48
2019-02-17T00:20:38.791Z,101869.58
2019-02-17T00:23:08.485Z,101873.42
2019-02-17T00:25:38.241Z,101870.50
2019-02-17T00:28:07.866Z,101875.19
2019-02-17T00:30:38.278Z,101879.05
2019-02-17T00:33:07.906Z,101875.25
2019-02-17T00:35:37.544Z,101872.34
2019-02-17T00:38:07.489Z,101872.77
2019-02-17T00:40:37.194Z,101890.39
2019-02-17T00:43:07.580Z,101880.98
2019-02-17T00:45:37.389Z,101882.59
2019-02-17T00:48:07.014Z,101878.25
2019-02-17T00:50:36.768Z,101881.24
2019-02-17T00:53:06.444Z,101885.55
2019-02-17T00:55:36.086Z,101886.11
2019-02-17T00:58:05.831Z,101889.93
2019-02-17T01:00:35.797Z,101897.98
2019-02-17T01:03:05.539Z,101891.20
2019-02-17T01:05:35.247Z,101890.81
2019-02-17T01:08:05.598Z,101897.94
2019-02-17T01:10:35.391Z,101895.47
2019-02-17T01:13:05.897Z,101890.39
2019-02-17T01:15:35.687Z,101893.38
2019-02-17T01:18:05.488Z,101893.40
2019-02-17T01:20:35.594Z,101891.66
2019-02-17T01:23:05.294Z,101899.64
2019-02-17T01:25:34.921Z,101900.03
2019-02-17T01:28:04.690Z,101896.27
2019-02-17T01:30:34.462Z,101904.34
2019-02-17T01:33:04.365Z,101899.69
2019-02-17T01:35:34.054Z,101900.48
2019-02-17T01:38:04.589Z,101903.38
2019-02-17T01:40:34.261Z,101905.48
2019-02-17T01:43:04.561Z,101903.78
2019-02-17T01:45:34.430Z,101907.17
2019-02-17T01:48:04.591Z,101909.28
2019-02-17T01:50:35.305Z,101903.00
2019-02-17T01:53:06.046Z,101894.08
2019-02-17T01:55:36.013Z,101902.93
2019-02-17T01:58:06.053Z,101901.73
2019-02-17T02:00:36.822Z,101904.27
2019-02-17T02:03:06.824Z,101903.38
2019-02-17T02:05:36.614Z,101896.34
2019-02-17T02:08:06.688Z,101899.03
2019-02-17T02:10:36.427Z,101893.23
2019-02-17T02:13:06.996Z,101893.25
2019-02-17T02:15:36.860Z,101894.68
2019-02-17T02:18:06.488Z,101896.23
2019-02-17T02:20:36.115Z,101897.38
2019-02-17T02:23:06.265Z,101903.16
2019-02-17T02:25:38.743Z,101909.41
2019-02-17T02:28:09.603Z,101907.58
2019-02-17T02:30:40.054Z,101909.99
2019-02-17T02:33:11.651Z,101913.28
2019-02-17T02:35:43.079Z,101908.15
2019-02-17T02:38:13.660Z,101907.29
2019-02-17T02:40:43.949Z,101908.98
2019-02-17T02:43:13.694Z,101902.72
2019-02-17T02:45:43.654Z,101898.00
2019-02-17T02:48:14.055Z,101906.04
2019-02-17T02:50:44.010Z,101903.21
2019-02-17T02:53:13.785Z,101903.79
2019-02-17T02:55:43.793Z,101908.50
2019-02-17T02:58:13.408Z,101912.31
2019-02-17T03:00:43.548Z,101909.06
2019-02-17T03:03:13.182Z,101904.13
2019-02-17T03:05:44.838Z,101911.39
2019-02-17T03:08:14.619Z,101910.96
2019-02-17T03:10:44.250Z,101912.16
2019-02-17T03:13:13.993Z,101911.67
2019-02-17T03:15:43.700Z,101917.53
2019-02-17T03:18:15.114Z,101910.39
2019-02-17T03:20:44.737Z,101918.01
2019-02-17T03:23:16.254Z,101922.23
2019-02-17T03:25:46.445Z,101930.68
2019-02-17T03:28:16.082Z,101927.72
2019-02-17T03:30:46.451Z,101934.01
2019-02-17T03:33:16.116Z,101930.12
2019-02-17T03:35:45.706Z,101928.02
2019-02-17T03:38:15.367Z,101930.60
2019-02-17T03:40:45.869Z,101924.28
2019-02-17T03:43:15.781Z,101917.66
2019-02-17T03:45:45.829Z,101911.09
2019-02-17T03:48:16.135Z,101907.84
2019-02-17T03:50:45.764Z,101915.13
2019-02-17T03:53:17.406Z,101916.52
2019-02-17T03:55:47.156Z,101911.52
2019-02-17T03:58:17.742Z,101920.44
2019-02-17T04:00:47.451Z,101918.39
2019-02-17T04:03:17.186Z,101922.14
2019-02-17T04:05:47.165Z,101919.13
2019-02-17T04:08:17.507Z,101931.78
2019-02-17T04:10:47.501Z,101933.84
2019-02-17T04:13:18.226Z,101939.31
2019-02-17T04:15:47.992Z,101935.52
2019-02-17T04:18:18.267Z,101936.41
2019-02-17T04:20:47.909Z,101936.06
2019-02-17T04:23:17.965Z,101931.92
2019-02-17T04:25:48.136Z,101939.62
2019-02-17T04:28:17.781Z,101945.95
2019-02-17T04:30:48.066Z,101948.13
2019-02-17T04:33:19.378Z,101934.20
2019-02-17T04:35:49.339Z,101938.48
2019-02-17T04:38:19.118Z,101938.13
2019-02-17T04:40:48.751Z,101937.86
2019-02-17T04:43:18.729Z,101941.29
2019-02-17T04:45:48.790Z,101943.03
2019-02-17T04:48:19.492Z,101942.14
2019-02-17T04:50:49.710Z,101935.80
2019-02-17T04:53:19.452Z,101936.12
2019-02-17T04:55:49.200Z,101941.55
2019-02-17T04:58:19.444Z,101948.24
2019-02-17T05:00:50.108Z,101954.50
2019-02-17T05:03:21.481Z,101958.61
2019-02-17T05:05:51.177Z,101962.30
2019-02-17T05:08:20.806Z,101968.93
2019-02-17T05:10:51.523Z,101966.34
2019-02-17T05:13:21.192Z,101960.80
2019-02-17T05:15:51.792Z,101960.00
2019-02-17T05:18:21.410Z,101960.43
2019-02-17T05:20:51.237Z,101966.33
2019-02-17T05:23:20.842Z,101969.19
2019-02-17T05:25:50.591Z,101980.20
2019-02-17T05:28:20.278Z,101986.11
2019-02-17T05:30:53.123Z,101985.59
2019-02-17T05:33:24.865Z,101977.08
2019-02-17T05:35:56.865Z,101988.55
2019-02-17T05:38:27.253Z,101993.61
2019-02-17T05:40:57.160Z,101994.86
2019-02-17T05:43:27.072Z,102003.78
2019-02-17T05:45:56.522Z,102005.86
2019-02-17T05:48:29.376Z,102006.32
2019-02-17T05:51:01.274Z,102003.31
2019-02-17T05:53:32.421Z,102012.18
2019-02-17T05:56:03.683Z,102018.14
2019-02-17T05:58:33.879Z,102023.59
2019-02-17T06:01:05.546Z,102025.75
2019-02-17T06:03:35.708Z,102026.28
2019-02-17T06:06:05.409Z,102034.30
2019-02-17T06:08:35.031Z,102031.34
2019-02-17T06:11:04.666Z,102029.23
2019-02-17T06:13:34.335Z,102027.60
2019-02-17T06:16:03.970Z,102026.34
2019-02-17T06:18:33.860Z,102031.00
2019-02-17T06:21:03.530Z,102025.57
2019-02-17T06:23:33.575Z,102034.06
2019-02-17T06:26:03.320Z,102034.05
2019-02-17T06:28:34.496Z,102033.64
2019-02-17T06:31:13.898Z,102029.84
2019-02-17T06:33:36.664Z,102034.85
2019-02-17T06:36:06.901Z,102033.57
2019-02-17T06:38:37.010Z,102037.38
2019-02-17T06:41:06.655Z,102036.95
2019-02-17T06:43:37.413Z,102028.56
2019-02-17T06:46:07.380Z,102029.09
2019-02-17T06:48:37.299Z,102021.55
2019-02-17T06:51:06.974Z,102035.53
2019-02-17T06:53:37.763Z,102038.12
2019-02-17T06:56:09.222Z,102044.39
2019-02-17T06:58:40.695Z,102051.09
2019-02-17T07:01:10.328Z,102054.31
2019-02-17T07:03:40.068Z,102054.53
2019-02-17T07:06:14.451Z,102058.52
2019-02-17T07:08:44.175Z,102053.72
2019-02-17T07:11:14.155Z,102052.69
2019-02-17T07:13:43.849Z,102051.84
2019-02-17T07:16:15.132Z,102054.70
2019-02-17T07:18:45.312Z,102049.25
2019-02-17T07:21:15.003Z,102050.41
2019-02-17T07:23:45.196Z,102052.81
2019-02-17T07:26:17.255Z,102064.08
2019-02-17T07:28:47.398Z,102064.81
2019-02-17T07:31:17.089Z,102068.48
2019-02-17T07:33:47.590Z,102069.25
2019-02-17T07:36:17.638Z,102070.81
2019-02-17T07:38:47.956Z,102074.96
2019-02-17T07:41:17.852Z,102076.95
2019-02-17T07:43:47.660Z,102081.53
2019-02-17T07:46:17.398Z,102085.22
2019-02-17T07:48:47.026Z,102097.89
2019-02-17T07:51:16.802Z,102096.58
2019-02-17T07:53:46.817Z,102102.17
2019-02-17T07:56:16.448Z,102105.94
2019-02-17T07:58:46.243Z,102097.48
2019-02-17T08:01:15.951Z,102104.73
2019-02-17T08:03:45.965Z,102113.14
2019-02-17T08:06:15.779Z,102115.67
2019-02-17T08:08:45.405Z,102123.70
2019-02-17T08:11:15.155Z,102122.48
2019-02-17T08:13:44.935Z,102124.62
2019-02-17T08:16:14.574Z,102130.58
2019-02-17T08:18:44.582Z,102128.41
2019-02-17T08:21:15.089Z,102127.02
2019-02-17T08:23:44.798Z,102124.76
2019-02-17T08:26:14.695Z,102125.47
2019-02-17T08:28:45.829Z,102137.32
2019-02-17T08:31:15.454Z,102132.78
2019-02-17T08:33:45.961Z,102144.27
2019-02-17T08:36:16.591Z,102143.44
2019-02-17T08:38:46.397Z,102144.34
2019-02-17T08:41:16.022Z,102145.62
2019-02-17T08:43:45.697Z,102134.98
2019-02-17T08:46:15.312Z,102140.89
2019-02-17T08:48:44.947Z,102137.09
2019-02-17T08:51:14.868Z,102140.00
2019-02-17T08:53:44.666Z,102132.80
2019-02-17T08:56:18.698Z,102126.79
2019-02-17T08:58:48.475Z,102129.56
2019-02-17T09:01:19.648Z,102127.71
2019-02-17T09:03:50.038Z,102131.41
2019-02-17T09:06:21.316Z,102133.84
2019-02-17T09:08:51.446Z,102137.43
2019-02-17T09:11:21.874Z,102135.13
2019-02-17T09:13:51.696Z,102137.66
2019-02-17T09:16:21.448Z,102134.25
2019-02-17T09:18:51.141Z,102141.73
2019-02-17T09:21:22.483Z,102136.31
2019-02-17T09:23:52.262Z,102134.59
2019-02-17T09:26:21.857Z,102125.72
2019-02-17T09:28:51.611Z,102135.72
2019-02-17T09:31:21.245Z,102139.38
2019-02-17T09:33:50.875Z,102140.17
2019-02-17T09:36:21.112Z,102144.38
2019-02-17T09:38:53.579Z,102143.55
2019-02-17T09:41:23.217Z,102151.59
2019-02-17T09:43:53.087Z,102149.31
2019-02-17T09:46:23.109Z,102140.70
2019-02-17T09:48:52.808Z,102144.95
2019-02-17T09:51:22.958Z,102142.78
2019-02-17T09:53:52.585Z,102137.39
2019-02-17T09:56:22.222Z,102146.81
2019-02-17T09:58:54.973Z,102150.20
2019-02-17T10:01:24.770Z,102149.95
2019-02-17T10:03:54.525Z,102155.66
2019-02-17T10:06:24.678Z,102160.55
2019-02-17T10:08:54.307Z,102164.21
2019-02-17T10:11:23.944Z,102161.23
2019-02-17T10:13:55.040Z,102163.86
2019-02-17T10:16:24.694Z,102163.80
2019-02-17T10:18:55.186Z,102176.70
2019-02-17T10:21:24.869Z,102173.63
2019-02-17T10:23:54.509Z,102177.28
2019-02-17T10:26:26.960Z,102160.54
2019-02-17T10:28:56.824Z,102166.06
2019-02-17T10:31:26.450Z,102161.91
2019-02-17T10:33:56.084Z,102158.94
2019-02-17T10:36:25.830Z,102162.02
2019-02-17T10:38:55.451Z,102161.48
2019-02-17T10:41:25.091Z,102167.25
2019-02-17T10:43:54.849Z,102165.06
2019-02-17T10:46:24.623Z,102166.33
2019-02-17T10:48:54.242Z,102160.13
2019-02-17T10:51:26.354Z,102163.24
2019-02-17T10:53:55.420Z,102166.34
2019-02-17T10:56:26.639Z,102160.09
2019-02-17T10:58:57.070Z,102164.17
2019-02-17T11:01:27.077Z,102164.70
2019-02-17T11:04:07.903Z,102164.99
2019-02-17T11:06:38.407Z,102157.12
2019-02-17T11:09:10.152Z,102157.36
2019-02-17T11:11:40.476Z,102158.16
2019-02-17T11:14:10.112Z,102165.45
2019-02-17T11:16:39.830Z,102165.42
2019-02-17T11:19:09.614Z,102168.55
2019-02-17T11:21:42.154Z,102170.72
2019-02-17T11:24:11.806Z,102163.42
2019-02-17T11:26:43.054Z,102171.27
2019-02-17T11:29:12.694Z,102173.55
2019-02-17T11:31:42.471Z,102171.00
2019-02-17T11:34:12.286Z,102177.44
2019-02-17T11:36:41.923Z,102168.83
2019-02-17T11:39:13.227Z,102171.98
2019-02-17T11:41:42.945Z,102170.92
2019-02-17T11:44:12.638Z,102173.56
2019-02-17T11:46:42.286Z,102173.09
2019-02-17T11:49:12.651Z,102173.03
2019-02-17T11:51:42.358Z,102169.16
2019-02-17T11:54:12.112Z,102168.28
2019-02-17T11:56:41.906Z,102175.12
2019-02-17T11:59:11.536Z,102179.41
2019-02-17T12:01:43.903Z,102185.80
2019-02-17T12:04:13.609Z,102181.48
2019-02-17T12:06:43.321Z,102184.88
2019-02-17T12:09:13.550Z,102183.37
2019-02-17T12:11:43.402Z,102187.59
2019-02-17T12:14:13.050Z,102187.50
2019-02-17T12:16:42.749Z,102189.27
2019-02-17T12:19:12.503Z,102194.13
2019-02-17T12:21:51.693Z,102191.70
2019-02-17T12:24:23.323Z,102198.91
2019-02-17T12:27:00.337Z,102191.76
2019-02-17T12:29:38.526Z,102204.86
2019-02-17T12:32:09.596Z,102202.90
2019-02-17T12:34:39.606Z,102194.25
2019-02-17T12:37:09.285Z,102194.89
2019-02-17T12:39:38.993Z,102201.59
2019-02-17T12:42:08.696Z,102194.06
2019-02-17T12:44:38.820Z,102197.30
2019-02-17T12:47:09.462Z,102196.98
2019-02-17T12:49:39.938Z,102194.16
2019-02-17T12:52:09.619Z,102197.61
2019-02-17T12:54:39.265Z,102194.73
2019-02-17T12:57:10.671Z,102192.49
2019-02-17T12:59:40.363Z,102195.23
2019-02-17T13:02:10.070Z,102196.50
2019-02-17T13:04:41.513Z,102205.34
2019-02-17T13:07:15.311Z,102213.59
2019-02-17T13:09:46.470Z,102207.52
2019-02-17T13:12:19.038Z,102205.59
2019-02-17T13:14:49.213Z,102207.05
2019-02-17T13:17:22.016Z,102214.73
2019-02-17T13:19:58.086Z,102215.64
2019-02-17T13:22:31.962Z,102214.36
2019-02-17T13:25:04.155Z,102207.84
2019-02-17T13:27:46.837Z,102215.23
2019-02-17T13:30:20.309Z,102210.22
2019-02-17T13:32:53.424Z,102217.06
2019-02-17T13:35:25.747Z,102216.52
2019-02-17T13:38:00.724Z,102219.63
2019-02-17T13:40:34.063Z,102212.48
2019-02-17T13:43:06.010Z,102215.39
2019-02-17T13:45:44.901Z,102216.86
2019-02-17T13:48:16.027Z,102210.89
2019-02-17T13:50:45.796Z,102213.63
2019-02-17T13:53:16.017Z,102219.04
2019-02-17T13:55:48.803Z,102217.00
2019-02-17T13:58:18.539Z,102215.05
2019-02-17T14:00:48.400Z,102217.14
2019-02-17T14:03:18.310Z,102207.92
2019-02-17T14:05:48.020Z,102218.50
2019-02-17T14:08:20.896Z,102213.86
2019-02-17T14:10:50.591Z,102223.32
2019-02-17T14:13:20.260Z,102222.03
2019-02-17T14:15:50.006Z,102217.42
2019-02-17T14:18:22.043Z,102215.89
2019-02-17T14:20:52.733Z,102213.88
2019-02-17T14:23:22.621Z,102218.16
2019-02-17T14:25:52.427Z,102226.56
2019-02-17T14:28:22.275Z,102216.77
2019-02-17T14:30:53.924Z,102224.02
2019-02-17T14:33:24.073Z,102217.22
2019-02-17T14:35:54.418Z,102212.54
2019-02-17T14:38:24.887Z,102217.57
2019-02-17T14:40:54.521Z,102213.05
2019-02-17T14:43:24.206Z,102213.12
2019-02-17T14:45:55.266Z,102210.64
2019-02-17T14:48:24.894Z,102212.03
2019-02-17T14:50:54.609Z,102209.08
2019-02-17T14:53:24.511Z,102205.69
2019-02-17T14:55:54.152Z,102209.06
2019-02-17T14:58:23.804Z,102204.47
2019-02-17T15:00:53.532Z,102201.16
2019-02-17T15:03:23.227Z,102203.32
2019-02-17T15:05:53.771Z,102202.54
2019-02-17T15:08:24.814Z,102202.23
2019-02-17T15:10:54.618Z,102208.33
2019-02-17T15:13:24.915Z,102205.86
2019-02-17T15:15:54.831Z,102202.91
2019-02-17T15:18:24.549Z,102197.84
2019-02-17T15:20:56.182Z,102199.16
2019-02-17T15:23:26.085Z,102199.69
2019-02-17T15:25:55.862Z,102195.52
2019-02-17T15:28:25.552Z,102197.32
2019-02-17T15:30:55.279Z,102201.20
2019-02-17T15:33:27.785Z,102200.02
2019-02-17T15:35:57.605Z,102200.94
2019-02-17T15:38:29.833Z,102197.66
2019-02-17T15:41:06.041Z,102192.69
2019-02-17T15:43:36.835Z,102192.69
2019-02-17T15:46:07.044Z,102193.11
2019-02-17T15:48:37.234Z,102198.23
2019-02-17T15:51:07.160Z,102195.77
2019-02-17T15:53:36.781Z,102191.54
2019-02-17T15:56:07.112Z,102193.64
2019-02-17T15:58:36.813Z,102194.89
2019-02-17T16:01:09.166Z,102194.44
2019-02-17T16:03:39.235Z,102198.28
2019-02-17T16:06:09.007Z,102187.31
2019-02-17T16:08:41.430Z,102189.01
2019-02-17T16:11:12.064Z,102183.09
2019-02-17T16:13:41.690Z,102190.84
2019-02-17T16:16:11.453Z,102184.66
2019-02-17T16:18:41.323Z,102190.20
2019-02-17T16:21:15.645Z,102190.66
2019-02-17T16:23:47.698Z,102193.66
2019-02-17T16:26:19.579Z,102196.63
2019-02-17T16:28:49.660Z,102199.16
2019-02-17T16:31:21.624Z,102203.08
2019-02-17T16:33:55.361Z,102201.45
2019-02-17T16:36:27.331Z,102202.71
2019-02-17T16:38:58.429Z,102205.73
2019-02-17T16:41:28.210Z,102208.28
2019-02-17T16:43:57.935Z,102220.17
2019-02-17T16:46:27.564Z,102218.53
2019-02-17T16:48:57.360Z,102210.52
2019-02-17T16:51:27.761Z,102216.00
2019-02-17T16:53:57.400Z,102217.73
2019-02-17T16:56:27.919Z,102214.73
2019-02-17T16:58:57.548Z,102221.06
2019-02-17T17:01:27.181Z,102218.56
2019-02-17T17:03:57.017Z,102218.61
2019-02-17T17:06:27.087Z,102223.25
2019-02-17T17:08:56.720Z,102224.94
2019-02-17T17:11:29.302Z,102227.50
2019-02-17T17:14:00.870Z,102232.56
2019-02-17T17:16:36.979Z,102230.88
2019-02-17T17:19:06.674Z,102230.03
2019-02-17T17:21:36.313Z,102231.72
2019-02-17T17:27:53.717Z,102220.75
2019-02-17T17:30:23.741Z,102222.02
2019-02-17T17:32:54.373Z,102212.36
2019-02-17T17:35:24.019Z,102212.01
2019-02-17T17:37:53.730Z,102211.59
2019-02-17T17:40:23.372Z,102212.47
2019-02-17T17:42:53.013Z,102217.98
2019-02-17T17:45:23.238Z,102221.75
2019-02-17T17:47:52.890Z,102223.44
2019-02-17T17:50:22.524Z,102218.02
2019-02-17T17:52:53.796Z,102210.89
2019-02-17T17:55:23.418Z,102210.89
2019-02-17T17:57:53.606Z,102220.63
2019-02-17T18:00:34.211Z,102219.84
2019-02-17T18:03:03.846Z,102216.97
2019-02-17T18:05:33.586Z,102217.03
2019-02-17T18:08:03.446Z,102212.48
2019-02-17T18:10:33.184Z,102207.45
2019-02-17T18:13:02.929Z,102210.89
2019-02-17T18:15:32.606Z,102210.08
2019-02-17T18:18:03.666Z,102214.34
2019-02-17T18:20:33.303Z,102219.41
2019-02-17T18:23:03.018Z,102217.27
2019-02-17T18:25:32.734Z,102214.73
2019-02-17T18:28:02.350Z,102221.42
2019-02-17T18:30:32.038Z,102213.81
2019-02-17T18:33:01.666Z,102219.68
2019-02-17T18:35:31.331Z,102222.63
2019-02-17T18:38:01.022Z,102229.34
2019-02-17T18:40:30.656Z,102232.66
2019-02-17T18:43:00.404Z,102229.64
2019-02-17T18:45:30.102Z,102227.92
2019-02-17T18:48:00.463Z,102229.19
2019-02-17T18:50:30.160Z,102225.78
2019-02-17T18:53:02.693Z,102224.97
2019-02-17T18:55:32.328Z,102216.58
2019-02-17T18:58:02.912Z,102221.21
2019-02-17T19:00:32.685Z,102226.30
2019-02-17T19:03:03.568Z,102218.71
2019-02-17T19:05:33.284Z,102230.48
2019-02-17T19:08:04.854Z,102220.79
2019-02-17T19:10:36.340Z,102220.41
2019-02-17T19:13:06.030Z,102225.09
2019-02-17T19:15:35.802Z,102225.55
2019-02-17T19:18:07.816Z,102228.08
2019-02-17T19:20:40.712Z,102229.77
2019-02-17T19:23:10.446Z,102227.63
2019-02-17T19:25:40.957Z,102235.22
2019-02-17T19:28:13.307Z,102231.48
2019-02-17T19:30:43.198Z,102228.17
2019-02-17T19:33:13.251Z,102232.43
2019-02-17T19:35:44.843Z,102225.78
2019-02-17T19:38:14.619Z,102238.44
2019-02-17T19:40:51.434Z,102234.64
2019-02-17T19:43:22.810Z,102240.94
2019-02-17T19:45:52.434Z,102240.48
2019-02-17T19:48:22.372Z,102232.91
2019-02-17T19:50:53.859Z,102239.20
2019-02-17T19:53:23.735Z,102239.56
2019-02-17T19:55:53.502Z,102234.54
2019-02-17T19:58:23.164Z,102233.30
2019-02-17T20:00:55.017Z,102232.48
2019-02-17T20:03:38.289Z,102235.03
2019-02-17T20:06:09.205Z,102243.46
2019-02-17T20:08:38.841Z,102241.38
2019-02-17T20:11:08.928Z,102246.44
2019-02-17T20:13:39.245Z,102238.85
2019-02-17T20:16:08.872Z,102235.06
2019-02-17T20:18:41.117Z,102236.65
2019-02-17T20:21:10.748Z,102241.73
2019-02-17T20:23:40.503Z,102240.48
2019-02-17T20:26:10.782Z,102246.44
2019-02-17T20:28:43.338Z,102247.72
2019-02-17T20:31:11.762Z,102257.86
2019-02-17T20:33:41.433Z,102256.56
2019-02-17T20:36:11.074Z,102256.55
2019-02-17T20:38:41.021Z,102253.97
2019-02-17T20:41:10.730Z,102252.27
2019-02-17T20:43:40.471Z,102258.92
2019-02-17T20:46:10.229Z,102256.81
2019-02-17T20:48:39.867Z,102247.52
2019-02-17T20:51:09.549Z,102252.21
2019-02-17T20:53:39.180Z,102251.81
2019-02-17T20:56:10.236Z,102253.97
2019-02-17T20:58:40.212Z,102262.00
2019-02-17T21:01:09.853Z,102262.42
2019-02-17T21:03:39.636Z,102261.13
2019-02-17T21:06:13.065Z,102256.92
2019-02-17T21:08:43.208Z,102254.79
2019-02-17T21:11:13.148Z,102258.19
2019-02-17T21:13:43.260Z,102263.69
2019-02-17T21:16:13.623Z,102265.39
2019-02-17T21:18:43.459Z,102264.95
2019-02-17T21:21:13.168Z,102259.89
2019-02-17T21:23:42.876Z,102250.20
2019-02-17T21:26:13.133Z,102250.25
2019-02-17T21:28:43.020Z,102248.14
2019-02-17T21:31:15.707Z,102250.27
2019-02-17T21:33:45.352Z,102248.21
2019-02-17T21:36:23.267Z,102245.29
2019-02-17T21:38:50.649Z,102251.20
2019-02-17T21:41:20.411Z,102251.22
2019-02-17T21:43:50.976Z,102250.02
2019-02-17T21:46:23.685Z,102251.78
2019-02-17T21:48:54.349Z,102250.13
2019-02-17T21:51:23.983Z,102243.41
2019-02-17T21:53:53.987Z,102236.73
2019-02-17T21:56:23.687Z,102232.55
2019-02-17T21:58:53.344Z,102239.69
2019-02-17T22:01:23.288Z,102237.59
2019-02-17T22:03:53.236Z,102238.44
2019-02-17T22:06:32.902Z,102233.00
2019-02-17T22:08:54.193Z,102230.09
2019-02-17T22:11:26.977Z,102230.92
2019-02-17T22:13:56.606Z,102236.00
2019-02-17T22:16:26.221Z,102235.98
2019-02-17T22:18:59.016Z,102233.44
2019-02-17T22:21:36.351Z,102241.42
2019-02-17T22:24:07.017Z,102241.42
2019-02-17T22:26:39.650Z,102239.79
2019-02-17T22:29:13.961Z,102231.39
2019-02-17T22:31:43.964Z,102233.05
2019-02-17T22:34:15.413Z,102227.62
2019-02-17T22:36:48.178Z,102231.00
2019-02-17T22:39:18.491Z,102231.00
2019-02-17T22:41:53.006Z,102235.64
2019-02-17T22:44:24.455Z,102233.11
2019-02-17T22:46:56.341Z,102233.98
2019-02-17T22:49:28.386Z,102240.26
2019-02-17T22:51:58.124Z,102243.65
2019-02-17T22:54:27.856Z,102247.84
2019-02-17T22:56:59.675Z,102245.75
2019-02-17T22:59:30.743Z,102249.09
2019-02-17T23:02:00.660Z,102252.45
2019-02-17T23:04:32.109Z,102249.51
2019-02-17T23:07:03.232Z,102253.70
2019-02-17T23:09:34.672Z,102251.63
2019-02-17T23:12:04.557Z,102249.92
2019-02-17T23:14:34.523Z,102252.03
2019-02-17T23:17:04.284Z,102254.13
2019-02-17T23:19:33.989Z,102265.48
2019-02-17T23:22:06.665Z,102262.11
2019-02-17T23:24:36.567Z,102265.48
2019-02-17T23:27:07.832Z,102273.03
2019-02-17T23:29:37.751Z,102271.78
2019-02-17T23:32:07.742Z,102277.66
2019-02-17T23:34:37.438Z,102270.91
2019-02-17T23:37:09.801Z,102271.77
2019-02-17T23:39:42.397Z,102275.10
2019-02-17T23:42:14.492Z,102276.37
2019-02-17T23:44:50.144Z,102275.52
2019-02-17T23:47:23.846Z,102280.98
2019-02-17T23:49:57.142Z,102279.25
2019-02-17T23:52:29.389Z,102278.41
2019-02-17T23:54:59.473Z,102277.13
2019-02-17T23:57:29.908Z,102275.02
2019-02-17T23:59:59.535Z,102271.23
